Aérodrome :
LOGIN :

S'inscrire | Disclaimer

   EN    FR    IT 

 










Légende :    VFR   VFR Marginal   IFR   IFR Intensif   IFR Très Intensif
Visi : 
Plafond : 
>= 8 km
>= 3000ft
5 à 8 km
1000 à 3000 ft
1500m à 5 km
500 à 1000 ft
800 à 1500m
200 à 500 ft
< 800m
< 200 ft
Symboles :   Orages  Brouillard  Fortes neiges  Fortes précipitations  Vent > 20 kt
SIGMETs :   Divers  Orages  Givrage  Turbulence  Onde Orograph.  Cendres Volcan.






- Altitude de l'aérodrome : 74 ft
- Code IATA : MRS


LFML - Marseille / Marignane

DERNIER METAR :
  • 210830Z AUTO 10012KT 9999 -RA FEW046 BKN058 BKN068 11/08 Q1009 TEMPO 4000 SHRA SCT020CB

METARs EXPIRÉS :
  • 210800Z AUTO 10009KT 9999 FEW052 SCT064 BKN082 11/08 Q1009 TEMPO 4000 SHRA SCT020TCU
  • 210730Z AUTO 09011KT 9999 FEW046/// OVC096/// ///CB 11/08 Q1008 TEMPO 4000 SHRA
  • 210700Z AUTO 08011KT 9999 FEW040 SCT072 BKN110 11/08 Q1008 TEMPO 4000 SHRA SCT020TCU
  • 210630Z AUTO 09011KT 9999 FEW043 BKN052 BKN130 11/08 Q1008 TEMPO 4000 SHRA SCT020TCU
  • 210600Z AUTO 09010KT 9999 SCT039 BKN050 OVC060 11/08 Q1008 TEMPO 4000 SHRA SCT020TCU

TAF TAF LFML
Valide du 21 à 09h jusqu'au 22 à 15h UTC


210800Z 2109/2215 09010KT 9999 BKN050 TX15/2214Z TN10/2203Z
TEMPO 2109/2111 4000 SHRA SCT020CB
TEMPO 2111/2118 2000 RA SCT005 BKN014
PROB30
TEMPO 2111/2118 1000 TSRA SCT010 SCT020CB
TEMPO 2210/2215 12020G30KT RA BKN020
ATIS : +33 4 42 31 15 15



MET'MAP, la Météo Aéronautique d'un coup d'oeil ! - Copyright ORBIFLY Décembre 2007 - Disclaimer

ORBIFLY MET'MAP TEAM :

Programmation & Développement : Alexandra Zaïnal
Conception & Développement : Baudouin d'Aumeries
Co-Programmation & Développement : Marc-Olivier Méhu
Soutien technique & logistique : Manuel Goepfert

Contact : metmap@orbifly.com




SOURCES & CREDITS :

   NOAA